Time;durP1;ratioP1;P1;durP2;ratioP2;P2;SDS_P1;SDS_P2;PMS_P1;PMS_P2;Temp;Humidity;BMP_temperature;BMP_pressure;BME280_temperature;BME280_humidity;BME280_pressure;Samples;Min_cycle;Max_cycle;Signal;HPM_P1;HPM_P2
2021/11/24 00:00:24;;;;;;;26.48;13.32;;;;;;;6.93;78.70;102802.47;5039522;28;20969;-59
2021/11/24 00:02:50;;;;;;;18.60;12.40;;;;;;;6.95;78.47;102808.56;5038708;28;20104;-58
2021/11/24 00:05:16;;;;;;;25.73;15.35;;;;;;;6.96;79.20;102806.78;5038349;28;20132;-59
2021/11/24 00:07:42;;;;;;;19.30;14.25;;;;;;;6.99;78.59;102796.16;5036876;28;20044;-57
2021/11/24 00:10:10;;;;;;;23.35;14.85;;;;;;;7.03;78.79;102803.94;5037950;28;20029;-57
2021/11/24 00:12:35;;;;;;;18.95;13.63;;;;;;;7.07;78.12;102797.69;5040368;28;20068;-57
2021/11/24 00:15:01;;;;;;;20.35;14.32;;;;;;;7.13;78.08;102798.41;5041988;28;20535;-58
2021/11/24 00:17:26;;;;;;;24.83;13.63;;;;;;;7.11;78.36;102800.25;5041337;28;20029;-59
2021/11/24 00:19:52;;;;;;;17.80;12.70;;;;;;;7.09;78.75;102788.00;5040563;28;20500;-57
2021/11/24 00:22:17;;;;;;;21.05;14.20;;;;;;;7.12;78.84;102787.03;5039222;28;20496;-58
2021/11/24 00:24:42;;;;;;;24.40;14.93;;;;;;;7.16;78.41;102782.56;5039362;28;20034;-58
2021/11/24 00:27:08;;;;;;;22.85;14.48;;;;;;;7.19;78.41;102785.09;5037549;28;20040;-56
2021/11/24 00:29:33;;;;;;;18.77;13.23;;;;;;;7.21;78.33;102788.56;5036053;28;20025;-56
2021/11/24 00:31:59;;;;;;;20.77;13.82;;;;;;;7.21;78.51;102785.94;5041522;28;20448;-56
2021/11/24 00:34:24;;;;;;;18.42;14.52;;;;;;;7.20;78.32;102781.56;5036303;28;20518;-57
2021/11/24 00:36:50;;;;;;;21.20;15.93;;;;;;;7.15;78.61;102786.94;5035495;28;20519;-57
2021/11/24 00:39:15;;;;;;;25.65;15.93;;;;;;;7.03;78.40;102782.91;5039152;28;20044;-56
2021/11/24 00:41:41;;;;;;;20.63;15.38;;;;;;;6.94;79.56;102783.16;5036064;28;20055;-57
2021/11/24 00:44:07;;;;;;;20.08;14.00;;;;;;;6.95;79.21;102779.63;5034084;28;20025;-57
2021/11/24 00:46:33;;;;;;;18.42;13.07;;;;;;;6.98;79.09;102781.31;5034968;28;20039;-58
2021/11/24 00:48:59;;;;;;;19.20;12.75;;;;;;;6.99;79.04;102776.00;5034365;28;20028;-56
2021/11/24 00:51:24;;;;;;;19.17;13.40;;;;;;;7.00;79.70;102772.47;5033825;28;20095;-56
2021/11/24 00:53:50;;;;;;;16.70;13.63;;;;;;;7.04;79.43;102776.72;5039286;28;20037;-60
2021/11/24 00:56:15;;;;;;;17.48;14.05;;;;;;;7.04;79.26;102774.09;5039093;28;20073;-57
2021/11/24 00:58:40;;;;;;;23.63;14.82;;;;;;;7.02;79.57;102775.06;5038526;28;20041;-58
2021/11/24 01:01:06;;;;;;;20.17;14.18;;;;;;;7.04;79.42;102774.09;5037416;28;20056;-58
2021/11/24 01:03:31;;;;;;;17.85;12.68;;;;;;;7.03;78.91;102769.75;5037821;28;20048;-57
2021/11/24 01:05:56;;;;;;;17.10;12.27;;;;;;;7.01;79.31;102768.91;5042584;28;20148;-58
2021/11/24 01:08:22;;;;;;;20.25;12.52;;;;;;;7.04;79.23;102770.59;5037107;28;20045;-58
2021/11/24 01:10:48;;;;;;;18.58;14.23;;;;;;;7.04;79.20;102767.97;5038909;28;20076;-55
2021/11/24 01:13:16;;;;;;;19.30;13.75;;;;;;;7.05;79.20;102762.69;5039226;28;20120;-55
2021/11/24 01:15:41;;;;;;;20.55;14.32;;;;;;;7.07;79.02;102760.00;5041425;28;20075;-56
2021/11/24 01:18:07;;;;;;;19.08;13.27;;;;;;;7.07;79.34;102760.84;5036092;28;20047;-56
2021/11/24 01:20:32;;;;;;;20.20;13.32;;;;;;;7.09;79.38;102751.16;5035909;28;20385;-56
2021/11/24 01:22:58;;;;;;;18.63;12.82;;;;;;;7.13;78.80;102748.41;5041114;28;20622;-54
2021/11/24 01:25:23;;;;;;;20.30;13.88;;;;;;;7.17;79.07;102742.16;5035542;28;20408;-57
2021/11/24 01:27:49;;;;;;;17.55;13.20;;;;;;;7.17;78.86;102745.66;5044036;28;20037;-57
2021/11/24 01:30:15;;;;;;;19.13;13.57;;;;;;;7.15;78.94;102746.59;5039674;28;20030;-56
2021/11/24 01:32:41;;;;;;;18.63;13.05;;;;;;;7.13;79.22;102741.41;5040378;28;20450;-57
2021/11/24 01:35:08;;;;;;;18.25;13.93;;;;;;;7.12;78.80;102747.56;5041368;28;20119;-57
2021/11/24 01:37:34;;;;;;;19.52;13.05;;;;;;;7.11;78.88;102744.97;5042590;28;20064;-56
2021/11/24 01:40:01;;;;;;;21.40;13.60;;;;;;;7.07;79.15;102741.56;5039588;28;20065;-56
2021/11/24 01:42:27;;;;;;;15.52;11.93;;;;;;;7.11;79.06;102743.19;5041990;28;20469;-57
2021/11/24 01:44:52;;;;;;;19.35;12.88;;;;;;;7.16;78.32;102743.06;5045954;28;20108;-57
2021/11/24 01:47:18;;;;;;;23.70;14.05;;;;;;;7.11;79.50;102742.34;5040120;28;20159;-59
2021/11/24 01:49:43;;;;;;;23.33;13.75;;;;;;;7.06;79.63;102740.69;5040073;28;20034;-59
2021/11/24 01:52:09;;;;;;;16.95;13.18;;;;;;;7.04;79.27;102732.00;5042967;28;20044;-55
2021/11/24 01:54:35;;;;;;;25.55;14.18;;;;;;;7.01;79.41;102729.44;5039949;28;20021;-55
2021/11/24 01:57:00;;;;;;;25.92;14.82;;;;;;;7.04;79.70;102739.88;5038395;28;20029;-56
2021/11/24 01:59:26;;;;;;;19.80;13.60;;;;;;;7.06;79.84;102735.41;5041342;28;20033;-57
2021/11/24 02:01:52;;;;;;;20.77;13.32;;;;;;;7.09;79.28;102732.72;5041745;28;20041;-57
2021/11/24 02:04:18;;;;;;;21.35;13.95;;;;;;;7.11;79.41;102739.72;5035243;28;20041;-58
2021/11/24 02:06:44;;;;;;;20.20;13.55;;;;;;;7.14;79.55;102727.31;5043383;28;20029;-56
2021/11/24 02:09:09;;;;;;;20.40;14.20;;;;;;;7.15;79.45;102725.56;5036537;28;20036;-56
2021/11/24 02:11:37;;;;;;;19.25;14.15;;;;;;;7.13;79.42;102722.97;5043686;28;20029;-56
2021/11/24 02:14:04;;;;;;;17.83;13.23;;;;;;;7.15;79.64;102718.50;5040667;28;20112;-56
2021/11/24 02:16:29;;;;;;;19.65;13.38;;;;;;;7.17;79.70;102718.44;5039063;28;20045;-57
2021/11/24 02:18:55;;;;;;;21.50;14.68;;;;;;;7.16;79.57;102711.50;5042866;28;20040;-57
2021/11/24 02:21:20;;;;;;;18.80;13.32;;;;;;;7.17;79.56;102710.56;5042642;28;20040;-57
2021/11/24 02:23:46;;;;;;;18.35;13.80;;;;;;;7.15;79.35;102702.72;5034995;28;20052;-56
2021/11/24 02:26:12;;;;;;;18.55;12.82;;;;;;;7.16;79.69;102693.06;5041161;28;20457;-58
2021/11/24 02:28:38;;;;;;;21.00;14.18;;;;;;;7.16;79.67;102688.66;5039706;28;20017;-58
2021/11/24 02:31:04;;;;;;;19.08;14.38;;;;;;;7.16;79.60;102699.19;5034207;28;20076;-56
2021/11/24 02:33:29;;;;;;;23.40;14.52;;;;;;;7.06;80.11;102684.56;5036860;28;20489;-57
2021/11/24 02:35:55;;;;;;;27.92;14.95;;;;;;;7.03;80.44;102679.41;5035705;28;20065;-56
2021/11/24 02:38:20;;;;;;;23.48;15.13;;;;;;;7.05;79.79;102682.84;5043729;28;20052;-57
2021/11/24 02:40:45;;;;;;;25.80;14.70;;;;;;;7.07;80.10;102679.25;5042924;28;20060;-58
2021/11/24 02:43:11;;;;;;;24.40;14.77;;;;;;;7.09;79.62;102676.56;5037409;28;20108;-57
2021/11/24 02:45:37;;;;;;;20.83;15.00;;;;;;;7.12;80.05;102675.63;5038248;28;20029;-57
2021/11/24 02:48:03;;;;;;;27.08;14.88;;;;;;;7.12;79.53;102667.72;5041953;28;20033;-54
2021/11/24 02:50:29;;;;;;;25.15;15.77;;;;;;;7.14;79.86;102668.53;5041131;28;20073;-58
2021/11/24 02:52:54;;;;;;;19.40;14.60;;;;;;;7.16;79.45;102666.75;5038037;28;20072;-56
2021/11/24 02:55:20;;;;;;;20.70;14.43;;;;;;;7.18;79.64;102657.88;5034581;28;20037;-58
2021/11/24 02:57:49;;;;;;;19.33;13.32;;;;;;;7.21;79.44;102649.03;5037456;28;20041;-56
2021/11/24 03:00:16;;;;;;;22.17;13.82;;;;;;;7.22;79.27;102645.47;5036371;28;20045;-58
2021/11/24 03:02:45;;;;;;;22.60;15.30;;;;;;;7.20;79.42;102639.41;5035288;28;20025;-58
2021/11/24 03:05:11;;;;;;;14.93;12.30;;;;;;;7.17;79.21;102637.72;5038832;28;20378;-58
2021/11/24 03:07:38;;;;;;;21.33;13.68;;;;;;;7.14;79.72;102639.59;5036818;28;20036;-57
2021/11/24 03:10:04;;;;;;;22.35;13.35;;;;;;;7.11;79.77;102626.53;5037012;28;20037;-56
2021/11/24 03:12:30;;;;;;;24.60;12.43;;;;;;;7.12;78.94;102625.59;5034007;28;20067;-59
2021/11/24 03:14:56;;;;;;;15.63;11.57;;;;;;;7.08;79.61;102633.59;5039699;28;20493;-57
2021/11/24 03:17:21;;;;;;;16.48;12.52;;;;;;;7.06;79.32;102627.50;5036962;28;20030;-58
2021/11/24 03:19:48;;;;;;;18.45;13.43;;;;;;;7.06;79.38;102624.88;5040556;28;20457;-57
2021/11/24 03:22:21;;;;;;;21.25;13.05;;;;;;;7.05;79.66;102619.69;5033778;28;20042;-57
2021/11/24 03:24:49;;;;;;;17.60;12.40;;;;;;;7.04;79.63;102626.72;5036278;28;20034;-57
2021/11/24 03:27:14;;;;;;;21.90;13.13;;;;;;;7.03;79.75;102622.34;5040421;28;20029;-57
2021/11/24 03:29:39;;;;;;;18.65;12.80;;;;;;;7.00;79.86;102608.44;5042094;28;20029;-57
2021/11/24 03:32:05;;;;;;;16.58;12.75;;;;;;;7.00;80.14;102600.53;5041087;28;20500;-58
2021/11/24 03:34:30;;;;;;;19.17;13.48;;;;;;;6.98;79.78;102600.59;5042900;28;20034;-57
2021/11/24 03:36:55;;;;;;;19.73;13.18;;;;;;;6.97;80.11;102588.34;5034387;28;20047;-58
2021/11/24 03:39:21;;;;;;;22.05;13.40;;;;;;;6.96;80.17;102591.88;5039674;28;20205;-57
2021/11/24 03:41:46;;;;;;;19.80;13.20;;;;;;;6.93;80.16;102582.28;5045248;28;20527;-56
2021/11/24 03:44:12;;;;;;;22.73;14.30;;;;;;;6.91;80.42;102578.88;5038631;28;20033;-59
2021/11/24 03:46:37;;;;;;;22.50;13.80;;;;;;;6.92;80.27;102579.72;5035468;28;20041;-57
2021/11/24 03:49:02;;;;;;;22.23;13.43;;;;;;;6.89;80.25;102574.56;5044572;28;20049;-53
2021/11/24 03:51:28;;;;;;;16.38;12.45;;;;;;;6.90;80.05;102573.66;5035357;28;20042;-58
2021/11/24 03:53:53;;;;;;;18.63;11.98;;;;;;;6.90;80.01;102565.78;5037836;28;20076;-56
2021/11/24 03:56:18;;;;;;;21.17;12.80;;;;;;;6.91;80.25;102567.47;5041191;28;20072;-56
2021/11/24 03:58:44;;;;;;;20.10;12.27;;;;;;;6.91;79.83;102568.34;5040919;28;20032;-58
2021/11/24 04:01:10;;;;;;;22.45;12.63;;;;;;;6.94;80.23;102567.38;5042155;28;20438;-56
2021/11/24 04:03:36;;;;;;;23.60;13.43;;;;;;;6.94;80.43;102570.03;5040820;28;20039;-57
2021/11/24 04:06:01;;;;;;;18.27;12.00;;;;;;;6.95;80.29;102569.13;5035633;28;20118;-54
2021/11/24 04:08:26;;;;;;;17.63;11.07;;;;;;;7.00;79.96;102567.22;5041038;28;20034;-56
2021/11/24 04:10:52;;;;;;;20.08;11.68;;;;;;;7.03;79.28;102567.09;5046946;28;20039;-56
2021/11/24 04:13:17;;;;;;;21.52;14.13;;;;;;;7.01;79.76;102566.28;5044953;28;20044;-58
2021/11/24 04:15:42;;;;;;;20.92;13.63;;;;;;;6.99;79.47;102564.59;5040547;28;20033;-56
2021/11/24 04:18:08;;;;;;;19.38;12.85;;;;;;;6.94;80.59;102564.75;5045899;28;20078;-57
2021/11/24 04:20:33;;;;;;;21.05;13.70;;;;;;;6.90;80.15;102560.50;5044335;28;20470;-57
2021/11/24 04:22:59;;;;;;;20.83;14.35;;;;;;;6.89;80.52;102564.03;5041896;28;20036;-54
2021/11/24 04:25:24;;;;;;;19.98;14.05;;;;;;;6.88;80.65;102557.06;5042175;28;20383;-59
2021/11/24 04:27:50;;;;;;;20.80;14.18;;;;;;;6.85;80.68;102552.75;5041033;28;20386;-57
2021/11/24 04:30:17;;;;;;;23.08;14.32;;;;;;;6.83;80.67;102544.03;5042795;28;20483;-56
2021/11/24 04:32:42;;;;;;;22.75;13.43;;;;;;;6.89;80.35;102549.09;5046953;28;20547;-57
2021/11/24 04:35:08;;;;;;;19.83;13.77;;;;;;;6.93;80.21;102550.72;5037997;28;20080;-58
2021/11/24 04:37:34;;;;;;;19.48;13.38;;;;;;;6.93;80.06;102545.47;5041653;28;20355;-57
2021/11/24 04:39:59;;;;;;;20.15;14.05;;;;;;;6.97;79.88;102530.44;5036862;28;20028;-57
2021/11/24 04:42:25;;;;;;;19.85;13.98;;;;;;;6.91;80.71;102530.63;5044166;28;20612;-57
2021/11/24 04:44:50;;;;;;;24.83;15.50;;;;;;;6.88;80.46;102534.22;5040064;28;20038;-56
2021/11/24 04:47:15;;;;;;;25.48;15.00;;;;;;;6.88;80.39;102525.47;5037349;28;20037;-59
2021/11/24 04:49:41;;;;;;;20.08;14.40;;;;;;;6.89;80.48;102525.41;5042669;28;20036;-55
2021/11/24 04:52:06;;;;;;;25.20;15.90;;;;;;;6.88;80.46;102522.84;5037942;28;20034;-57
2021/11/24 04:54:32;;;;;;;23.70;14.55;;;;;;;6.84;80.31;102523.84;5041398;28;20025;-56
2021/11/24 04:56:57;;;;;;;22.10;15.60;;;;;;;6.85;80.67;102517.69;5043141;28;20041;-56
2021/11/24 04:59:22;;;;;;;20.10;14.05;;;;;;;6.93;80.22;102518.31;5045138;28;20519;-56
2021/11/24 05:01:48;;;;;;;24.80;14.82;;;;;;;6.93;80.60;102524.41;5038621;28;20033;-56
2021/11/24 05:04:13;;;;;;;22.67;15.98;;;;;;;6.92;80.21;102521.84;5045057;28;20120;-57
2021/11/24 05:06:39;;;;;;;25.83;16.23;;;;;;;6.89;80.54;102512.25;5038948;28;20017;-56
2021/11/24 05:09:06;;;;;;;26.60;16.85;;;;;;;6.90;80.28;102515.78;5039571;28;20075;-57
2021/11/24 05:11:31;;;;;;;22.10;16.13;;;;;;;6.87;80.42;102505.34;5042130;28;20037;-60
2021/11/24 05:13:59;;;;;;;24.42;15.85;;;;;;;6.87;80.42;102513.22;5038859;28;20037;-56
2021/11/24 05:16:30;;;;;;;21.75;15.48;;;;;;;6.90;80.80;102513.16;5040505;28;20473;-60
2021/11/24 05:18:56;;;;;;;24.98;17.13;;;;;;;6.87;80.87;102508.84;5041902;28;20116;-57
2021/11/24 05:23:50;;;;;;;24.73;17.27;;;;;;;6.85;80.64;102499.28;5040499;28;20037;-56
2021/11/24 05:26:15;;;;;;;28.25;17.88;;;;;;;6.84;81.03;102503.66;5044096;28;20029;-59
2021/11/24 05:28:41;;;;;;;22.67;16.77;;;;;;;6.86;80.96;102496.59;5040261;28;20401;-57
2021/11/24 05:31:06;;;;;;;28.90;18.60;;;;;;;6.84;81.15;102500.19;5037094;28;20057;-56
2021/11/24 05:33:32;;;;;;;26.20;17.67;;;;;;;6.84;81.09;102495.78;5043766;28;20048;-57
2021/11/24 05:35:58;;;;;;;25.70;17.23;;;;;;;6.81;81.54;102500.25;5040309;28;20048;-57
2021/11/24 05:38:23;;;;;;;25.13;18.27;;;;;;;6.80;81.04;102498.56;5038203;28;20037;-58
2021/11/24 05:40:49;;;;;;;24.67;17.35;;;;;;;6.81;81.27;102497.63;5039810;28;20644;-59
2021/11/24 05:43:19;;;;;;;27.88;18.88;;;;;;;6.83;81.63;102501.09;5034641;28;20037;-58
2021/11/24 05:45:59;;;;;;;23.30;15.95;;;;;;;6.88;80.78;102507.91;5043292;28;20041;-58
2021/11/24 05:48:24;;;;;;;22.10;16.13;;;;;;;6.92;80.72;102506.03;5041691;28;20488;-58
2021/11/24 05:50:51;;;;;;;23.73;17.33;;;;;;;6.91;80.53;102506.94;5038516;28;20033;-57
2021/11/24 05:53:18;;;;;;;26.92;18.67;;;;;;;6.83;81.64;102499.31;5041654;28;20508;-57
2021/11/24 05:55:45;;;;;;;28.30;19.40;;;;;;;6.83;81.62;102498.44;5036405;28;20029;-57
2021/11/24 05:58:11;;;;;;;30.58;19.55;;;;;;;6.81;81.47;102495.00;5037772;28;20033;-57
2021/11/24 06:00:37;;;;;;;28.38;19.40;;;;;;;6.82;81.32;102494.09;5042546;28;20091;-58
2021/11/24 06:03:02;;;;;;;30.95;20.75;;;;;;;6.80;81.01;102485.41;5038100;28;20168;-58
2021/11/24 06:05:27;;;;;;;29.27;20.52;;;;;;;6.80;81.41;102480.16;5038561;28;20096;-58
2021/11/24 06:07:53;;;;;;;29.33;21.23;;;;;;;6.83;81.12;102482.66;5041612;28;20041;-59
2021/11/24 06:10:18;;;;;;;27.75;18.90;;;;;;;6.84;81.10;102473.88;5043123;28;20025;-57
2021/11/24 06:12:43;;;;;;;34.40;21.48;;;;;;;6.80;81.31;102473.09;5041561;28;20030;-59
2021/11/24 06:15:14;;;;;;;41.40;23.00;;;;;;;6.81;81.25;102471.31;5038368;28;20359;-59
2021/11/24 06:17:40;;;;;;;35.65;22.45;;;;;;;6.81;81.90;102468.69;5035285;28;20037;-57
2021/11/24 06:20:06;;;;;;;31.50;22.02;;;;;;;6.82;81.73;102467.78;5040864;28;20473;-56
2021/11/24 06:22:31;;;;;;;32.58;22.13;;;;;;;6.83;81.53;102465.09;5038307;28;20033;-57
2021/11/24 06:24:57;;;;;;;34.40;22.27;;;;;;;6.85;81.57;102470.34;5033539;28;20025;-59
2021/11/24 06:27:22;;;;;;;31.67;21.10;;;;;;;6.89;80.72;102464.91;5040092;28;20052;-58
2021/11/24 06:29:47;;;;;;;33.33;22.38;;;;;;;6.89;81.69;102474.59;5038462;28;20051;-58
2021/11/24 06:32:13;;;;;;;32.35;21.45;;;;;;;6.91;80.86;102473.63;5039392;28;20488;-58
2021/11/24 06:34:38;;;;;;;33.03;22.40;;;;;;;6.90;80.98;102460.53;5036450;28;20029;-59
2021/11/24 06:37:03;;;;;;;35.70;24.25;;;;;;;6.87;81.14;102458.84;5037943;28;20039;-59
2021/11/24 06:39:29;;;;;;;37.63;24.92;;;;;;;6.84;81.40;102460.72;5035738;28;20022;-59
2021/11/24 06:41:54;;;;;;;37.63;24.42;;;;;;;6.83;81.18;102448.47;5038406;28;20125;-60
2021/11/24 06:44:21;;;;;;;35.70;24.90;;;;;;;6.84;81.64;102447.56;5039265;28;20029;-59
2021/11/24 06:46:47;;;;;;;38.85;24.20;;;;;;;6.94;80.83;102446.34;5044458;28;20037;-61
2021/11/24 06:49:12;;;;;;;37.67;26.10;;;;;;;6.87;81.57;102442.19;5040427;28;20048;-60
2021/11/24 06:51:38;;;;;;;39.95;25.83;;;;;;;6.86;81.21;102437.84;5036649;28;20048;-57
2021/11/24 06:54:03;;;;;;;38.88;25.35;;;;;;;6.90;81.45;102442.09;5033113;28;20517;-59
2021/11/24 06:56:29;;;;;;;31.75;23.50;;;;;;;6.90;81.30;102440.31;5036984;28;20033;-60
2021/11/24 06:58:54;;;;;;;40.35;26.67;;;;;;;6.87;81.58;102434.28;5043054;28;20037;-59
2021/11/24 07:01:19;;;;;;;34.65;24.55;;;;;;;6.89;81.44;102440.38;5038070;28;20068;-59
2021/11/24 07:03:45;;;;;;;39.25;26.10;;;;;;;6.99;81.40;102439.16;5040318;28;20030;-57
2021/11/24 07:06:10;;;;;;;43.42;27.00;;;;;;;6.93;81.64;102439.38;5036033;28;20044;-58
2021/11/24 07:08:35;;;;;;;42.53;27.13;;;;;;;6.92;81.51;102427.13;5037972;28;20115;-59
2021/11/24 07:11:01;;;;;;;41.80;25.27;;;;;;;6.97;81.32;102427.81;5035267;28;20041;-57
2021/11/24 07:13:26;;;;;;;45.88;28.33;;;;;;;6.99;80.80;102439.16;5039587;28;20044;-57
2021/11/24 07:15:51;;;;;;;38.80;26.25;;;;;;;6.94;81.48;102433.19;5037544;28;20029;-60
2021/11/24 07:18:17;;;;;;;42.20;27.17;;;;;;;6.94;81.76;102435.81;5037981;28;20029;-59
2021/11/24 07:20:42;;;;;;;38.13;26.40;;;;;;;6.92;81.89;102437.63;5036052;28;20033;-60
2021/11/24 07:23:07;;;;;;;41.72;28.27;;;;;;;6.87;81.35;102440.44;5041681;28;20546;-58
2021/11/24 07:25:34;;;;;;;41.67;27.73;;;;;;;6.86;81.64;102438.72;5040019;28;20090;-57
2021/11/24 07:27:59;;;;;;;45.00;28.42;;;;;;;6.85;82.07;102444.03;5036402;28;20029;-58
2021/11/24 07:30:25;;;;;;;36.55;26.15;;;;;;;6.91;81.94;102435.91;5039599;28;20091;-60
2021/11/24 07:32:50;;;;;;;40.45;27.65;;;;;;;6.87;81.36;102426.41;5040128;28;20478;-59
2021/11/24 07:35:16;;;;;;;36.70;27.50;;;;;;;6.84;82.17;102434.41;5040566;28;20041;-59
2021/11/24 07:37:41;;;;;;;38.42;27.58;;;;;;;6.85;81.65;102436.13;5039167;28;20029;-57
2021/11/24 07:40:09;;;;;;;47.65;28.30;;;;;;;6.85;81.80;102434.34;5044765;28;20024;-58
2021/11/24 07:42:34;;;;;;;38.13;27.52;;;;;;;6.85;81.89;102431.72;5043215;28;20041;-60
2021/11/24 07:45:00;;;;;;;40.75;28.02;;;;;;;6.89;81.91;102433.34;5042397;28;20084;-59
2021/11/24 07:47:26;;;;;;;36.75;26.17;;;;;;;6.89;81.60;102430.69;5042660;28;20029;-57
2021/11/24 07:49:51;;;;;;;34.47;26.10;;;;;;;6.91;81.56;102426.25;5040801;28;20037;-57
2021/11/24 07:52:17;;;;;;;37.67;24.55;;;;;;;6.95;81.31;102432.28;5043004;28;20040;-60
2021/11/24 07:54:43;;;;;;;36.30;25.33;;;;;;;6.96;81.55;102427.88;5039630;28;20041;-57
2021/11/24 07:57:08;;;;;;;36.53;25.10;;;;;;;6.98;81.42;102426.91;5042104;28;20074;-57
2021/11/24 07:59:36;;;;;;;42.55;27.60;;;;;;;6.96;81.04;102423.47;5041143;28;20144;-55
2021/11/24 08:02:01;;;;;;;37.65;25.55;;;;;;;6.99;80.94;102426.00;5043146;28;20084;-58
2021/11/24 08:04:28;;;;;;;35.95;25.92;;;;;;;6.96;81.40;102417.34;5041378;28;20124;-57
2021/11/24 08:06:53;;;;;;;33.08;25.80;;;;;;;6.95;81.66;102411.25;5040750;28;20037;-57
2021/11/24 08:09:18;;;;;;;39.05;26.98;;;;;;;6.95;81.42;102410.38;5041306;28;20033;-58
2021/11/24 08:11:44;;;;;;;35.65;25.65;;;;;;;6.97;81.24;102413.81;5040047;28;20036;-58
2021/11/24 08:14:09;;;;;;;37.28;25.30;;;;;;;6.97;81.47;102406.75;5044803;28;20033;-55
2021/11/24 08:16:34;;;;;;;41.65;26.33;;;;;;;6.99;81.06;102410.22;5041225;28;20029;-57
2021/11/24 08:19:03;;;;;;;34.45;24.52;;;;;;;7.02;81.13;102412.72;5039420;28;20072;-60
2021/11/24 08:21:28;;;;;;;33.67;24.98;;;;;;;7.07;81.13;102402.91;5042392;28;20031;-56
2021/11/24 08:23:53;;;;;;;33.20;24.80;;;;;;;7.11;80.91;102401.03;5038027;28;20117;-56
2021/11/24 08:26:19;;;;;;;32.47;23.60;;;;;;;7.13;80.79;102404.50;5033860;28;20040;-57
2021/11/24 08:28:44;;;;;;;33.58;24.48;;;;;;;7.13;80.05;102399.22;5039301;28;20393;-58
2021/11/24 08:31:09;;;;;;;33.83;23.83;;;;;;;7.14;80.03;102394.81;5051118;28;20041;-59
2021/11/24 08:33:35;;;;;;;31.45;23.83;;;;;;;7.20;80.53;102399.88;5042855;28;20053;-57
2021/11/24 08:36:01;;;;;;;31.55;21.33;;;;;;;7.33;79.51;102395.03;5042306;28;20116;-58
2021/11/24 08:38:26;;;;;;;28.40;20.52;;;;;;;7.36;79.54;102389.63;5038831;28;20035;-56
2021/11/24 08:40:51;;;;;;;33.38;21.00;;;;;;;7.40;79.30;102381.59;5040792;28;20029;-58
2021/11/24 08:43:17;;;;;;;28.65;21.75;;;;;;;7.40;78.95;102381.59;5035905;28;20460;-58
2021/11/24 08:45:42;;;;;;;26.83;19.60;;;;;;;7.37;79.27;102376.41;5036185;28;20112;-55
2021/11/24 08:48:08;;;;;;;29.73;21.23;;;;;;;7.36;79.34;102377.31;5036575;28;20116;-59
2021/11/24 08:50:34;;;;;;;34.65;23.08;;;;;;;7.30;79.45;102374.94;5038629;28;20026;-58
2021/11/24 08:53:01;;;;;;;30.45;23.33;;;;;;;7.27;79.17;102375.03;5042701;28;20041;-57
2021/11/24 08:55:26;;;;;;;31.63;23.90;;;;;;;7.32;79.62;102373.09;5040499;28;20133;-59
2021/11/24 08:57:52;;;;;;;31.13;23.85;;;;;;;7.34;79.49;102366.00;5040232;28;20033;-57
2021/11/24 09:00:19;;;;;;;30.33;22.83;;;;;;;7.35;79.56;102373.00;5039269;28;20021;-59
2021/11/24 09:02:45;;;;;;;29.30;20.10;;;;;;;7.42;78.67;102369.22;5042899;28;20040;-55
2021/11/24 09:05:13;;;;;;;25.58;19.23;;;;;;;7.52;77.71;102358.34;5037989;28;20026;-57
2021/11/24 09:07:38;;;;;;;28.33;18.30;;;;;;;7.57;77.95;102365.16;5040696;28;20120;-57
2021/11/24 09:10:04;;;;;;;24.80;18.02;;;;;;;7.58;77.34;102363.38;5035621;28;20553;-58
2021/11/24 09:12:30;;;;;;;26.95;18.17;;;;;;;7.59;77.64;102362.47;5043527;28;20191;-56
2021/11/24 09:14:56;;;;;;;25.88;19.08;;;;;;;7.51;77.36;102368.03;5042740;28;20112;-56
2021/11/24 09:17:22;;;;;;;27.65;20.05;;;;;;;7.52;78.03;102367.09;5034727;28;20037;-58
2021/11/24 09:19:49;;;;;;;27.27;18.65;;;;;;;7.60;77.88;102361.56;5044086;28;20030;-58
2021/11/24 09:22:14;;;;;;;27.85;18.88;;;;;;;7.61;77.62;102362.41;5037161;28;20045;-57
2021/11/24 09:24:40;;;;;;;26.02;17.15;;;;;;;7.60;77.20;102356.28;5038600;28;20037;-56
2021/11/24 09:27:16;;;;;;;24.77;15.48;;;;;;;7.64;76.55;102357.88;5037532;28;20459;-56
2021/11/24 09:29:42;;;;;;;19.30;14.85;;;;;;;7.73;75.65;102354.91;5036932;28;20422;-54
2021/11/24 09:32:07;;;;;;;22.52;13.55;;;;;;;7.69;75.02;102350.66;5040836;28;20088;-58
2021/11/24 09:34:33;;;;;;;16.38;11.98;;;;;;;7.73;74.78;102352.25;5035500;28;20041;-60
2021/11/24 09:36:58;;;;;;;22.10;12.80;;;;;;;7.77;74.13;102352.16;5037717;28;20413;-58
2021/11/24 09:39:24;;;;;;;17.83;11.88;;;;;;;7.79;73.96;102339.78;5044603;28;20401;-54
2021/11/24 09:41:50;;;;;;;19.08;13.20;;;;;;;7.77;74.10;102331.94;5042552;28;20120;-56
2021/11/24 09:44:16;;;;;;;21.52;12.18;;;;;;;7.70;74.31;102341.84;5035144;28;20033;-55
2021/11/24 09:46:46;;;;;;;17.90;11.68;;;;;;;7.63;74.65;102331.59;5044247;28;20026;-56
2021/11/24 09:49:12;;;;;;;16.98;12.60;;;;;;;7.61;74.82;102347.47;5039578;28;20029;-53
2021/11/24 09:51:38;;;;;;;20.25;12.23;;;;;;;7.65;74.73;102328.00;5041314;28;20132;-58
2021/11/24 09:54:04;;;;;;;20.08;12.60;;;;;;;7.63;74.55;102324.56;5038030;28;20112;-58
2021/11/24 09:56:30;;;;;;;19.67;12.55;;;;;;;7.63;74.51;102335.09;5036927;28;20033;-55
2021/11/24 09:58:56;;;;;;;16.25;12.15;;;;;;;7.69;74.51;102332.22;5034577;28;20034;-54
2021/11/24 10:01:21;;;;;;;16.17;12.73;;;;;;;7.61;74.40;102331.69;5035188;28;20036;-60
2021/11/24 10:03:48;;;;;;;17.35;12.65;;;;;;;7.60;75.13;102324.69;5034822;28;20064;-59
2021/11/24 10:06:14;;;;;;;19.50;12.07;;;;;;;7.66;74.68;102329.72;5034929;28;20393;-59
2021/11/24 10:08:39;;;;;;;15.98;12.30;;;;;;;7.62;74.12;102328.09;5033174;28;20044;-60
2021/11/24 10:11:05;;;;;;;20.48;12.82;;;;;;;7.63;74.66;102327.19;5035669;28;20025;-57
2021/11/24 10:13:30;;;;;;;16.75;11.95;;;;;;;7.67;74.38;102330.56;5039653;28;20423;-54
2021/11/24 10:15:59;;;;;;;20.48;12.95;;;;;;;7.68;74.13;102332.28;5041584;28;20518;-56
2021/11/24 10:18:30;;;;;;;18.23;13.38;;;;;;;7.63;74.49;102323.72;5037474;28;20033;-54
2021/11/24 10:21:10;;;;;;;26.38;14.10;;;;;;;7.57;74.96;102314.25;5033439;28;20032;-59
2021/11/24 10:23:38;;;;;;;18.05;12.73;;;;;;;7.62;74.86;102307.03;5033793;28;20083;-58
2021/11/24 10:26:36;;;;;;;15.63;11.98;;;;;;;7.59;74.02;102300.09;5035521;28;20037;-56
2021/11/24 10:29:06;;;;;;;18.83;12.25;;;;;;;7.63;74.21;102297.38;5035512;28;20032;-55
2021/11/24 10:31:42;;;;;;;19.17;13.38;;;;;;;7.62;74.38;102287.75;5035638;28;20092;-58
2021/11/24 10:34:20;;;;;;;20.13;12.85;;;;;;;7.62;74.28;102280.69;5034393;28;20036;-57
2021/11/24 10:37:12;;;;;;;15.52;10.35;;;;;;;7.63;73.79;102271.88;5033594;28;20044;-56
2021/11/24 10:39:46;;;;;;;16.25;12.02;;;;;;;7.68;73.59;102269.91;5037321;28;20500;-57
2021/11/24 10:42:12;;;;;;;19.45;11.50;;;;;;;7.62;73.41;102262.25;5035318;28;20037;-52
2021/11/24 10:44:41;;;;;;;14.77;10.88;;;;;;;7.67;73.38;102270.84;5041425;28;20133;-59
2021/11/24 10:47:09;;;;;;;14.07;8.98;;;;;;;7.73;71.98;102260.06;5038990;28;20064;-58
2021/11/24 10:49:47;;;;;;;15.00;10.50;;;;;;;7.71;72.21;102259.28;5037992;28;20072;-57
2021/11/24 10:52:18;;;;;;;17.20;11.23;;;;;;;7.73;72.58;102251.31;5041011;28;20041;-58
2021/11/24 10:54:56;;;;;;;19.20;10.38;;;;;;;7.78;72.31;102253.75;5038007;28;20041;-55
2021/11/24 10:57:22;;;;;;;15.68;10.50;;;;;;;7.84;72.12;102248.25;5035848;28;20025;-62
2021/11/24 10:59:47;;;;;;;13.60;9.70;;;;;;;7.90;71.46;102240.94;5033788;28;20389;-58
2021/11/24 11:02:20;;;;;;;14.95;9.00;;;;;;;7.93;70.87;102229.41;5035581;28;20034;-56
2021/11/24 11:04:59;;;;;;;19.25;10.15;;;;;;;7.89;70.56;102230.47;5036616;28;20037;-56
2021/11/24 11:07:25;;;;;;;11.60;8.85;;;;;;;7.94;70.38;102217.13;5035760;28;20022;-58
2021/11/24 11:10:05;;;;;;;13.10;9.73;;;;;;;7.94;70.98;102217.97;5039834;28;20060;-56
2021/11/24 11:12:31;;;;;;;11.90;8.48;;;;;;;7.96;70.44;102216.13;5041646;28;20034;-56
2021/11/24 11:15:13;;;;;;;14.45;8.95;;;;;;;7.92;70.35;102204.84;5041907;28;20025;-56